createdAt,value
2018-12-19T00:01:46.526Z,67.65
2018-12-19T00:04:14.111Z,65.28
2018-12-19T00:06:41.649Z,65.04
2018-12-19T00:09:09.182Z,63.71
2018-12-19T00:11:36.745Z,63.65
2018-12-19T00:14:04.297Z,62.84
2018-12-19T00:16:32.369Z,61.13
2018-12-19T00:18:59.930Z,59.95
2018-12-19T00:21:27.437Z,59.93
2018-12-19T00:23:54.980Z,60.07
2018-12-19T00:26:22.530Z,59.15
2018-12-19T00:28:50.124Z,60.31
2018-12-19T00:31:17.638Z,59.88
2018-12-19T00:33:45.190Z,59.02
2018-12-19T00:36:12.714Z,60.24
2018-12-19T00:38:40.240Z,60.18
2018-12-19T00:41:07.793Z,59.17
2018-12-19T00:43:35.399Z,61.27
2018-12-19T00:46:02.953Z,62.80
2018-12-19T00:48:30.485Z,64.14
2018-12-19T00:50:58.059Z,64.07
2018-12-19T00:53:26.405Z,60.32
2018-12-19T00:55:53.953Z,60.88
2018-12-19T00:58:21.506Z,62.25
2018-12-19T01:00:49.059Z,62.49
2018-12-19T01:03:16.604Z,64.08
2018-12-19T01:05:44.149Z,66.00
2018-12-19T01:08:11.676Z,66.64
2018-12-19T01:10:39.275Z,67.72
2018-12-19T01:13:07.092Z,68.38
2018-12-19T01:15:34.711Z,68.70
2018-12-19T01:18:02.678Z,68.72
2018-12-19T01:20:30.244Z,69.60
2018-12-19T01:22:57.811Z,69.36
2018-12-19T01:25:25.349Z,69.60
2018-12-19T01:27:52.937Z,70.19
2018-12-19T01:30:21.166Z,70.27
2018-12-19T01:32:49.352Z,70.33
2018-12-19T01:35:16.900Z,70.67
2018-12-19T01:37:44.468Z,71.38
2018-12-19T01:40:12.044Z,71.31
2018-12-19T01:42:39.589Z,71.75
2018-12-19T01:45:07.297Z,71.59
2018-12-19T01:47:35.087Z,71.98
2018-12-19T01:50:02.902Z,72.57
2018-12-19T01:52:30.519Z,72.76
2018-12-19T01:54:58.116Z,73.29
2018-12-19T01:57:25.705Z,73.12
2018-12-19T01:59:53.242Z,73.39
2018-12-19T02:02:20.814Z,73.66
2018-12-19T02:04:48.364Z,73.78
2018-12-19T02:07:15.908Z,74.35
2018-12-19T02:09:43.452Z,74.24
2018-12-19T02:12:11.056Z,73.84
2018-12-19T02:14:38.620Z,73.75
2018-12-19T02:17:06.236Z,73.66
2018-12-19T02:19:34.520Z,73.76
2018-12-19T02:22:02.582Z,74.33
2018-12-19T02:24:30.130Z,74.54
2018-12-19T02:26:57.663Z,74.50
2018-12-19T02:29:25.230Z,74.46
2018-12-19T02:31:52.764Z,74.60
2018-12-19T02:34:20.385Z,74.52
2018-12-19T02:36:47.941Z,75.01
2018-12-19T02:39:15.488Z,75.00
2018-12-19T02:41:43.432Z,75.24
2018-12-19T02:44:11.075Z,75.43
2018-12-19T02:46:38.612Z,74.95
2018-12-19T02:49:06.193Z,75.33
2018-12-19T02:51:33.741Z,74.83
2018-12-19T02:54:01.328Z,74.66
2018-12-19T02:56:28.857Z,74.45
2018-12-19T02:58:56.526Z,74.28
2018-12-19T03:01:24.323Z,73.56
2018-12-19T03:03:51.854Z,73.56
2018-12-19T03:06:19.387Z,72.90
2018-12-19T03:08:46.965Z,73.04
2018-12-19T03:11:15.076Z,72.53
2018-12-19T03:13:42.980Z,72.54
2018-12-19T03:16:10.753Z,72.59
2018-12-19T03:18:38.293Z,73.00
2018-12-19T03:21:05.867Z,72.50
2018-12-19T03:23:33.415Z,73.23
2018-12-19T03:26:01.341Z,73.00
2018-12-19T03:28:28.983Z,73.00
2018-12-19T03:30:56.567Z,72.98
2018-12-19T03:33:24.573Z,72.64
2018-12-19T03:35:52.089Z,72.59
2018-12-19T03:38:26.343Z,72.55
2018-12-19T03:40:53.884Z,72.88
2018-12-19T03:43:21.439Z,72.90
2018-12-19T03:45:49.014Z,72.96
2018-12-19T03:48:22.099Z,73.22
2018-12-19T03:50:49.965Z,73.44
2018-12-19T03:53:17.497Z,73.65
2018-12-19T03:55:45.050Z,73.95
2018-12-19T03:58:12.654Z,74.51
2018-12-19T04:00:40.264Z,75.03
2018-12-19T04:03:07.817Z,75.14
2018-12-19T04:05:35.365Z,75.70
2018-12-19T04:08:02.906Z,75.52
2018-12-19T04:10:30.497Z,75.87
2018-12-19T04:12:58.021Z,75.79
2018-12-19T04:15:25.576Z,75.72
2018-12-19T04:17:53.144Z,75.58
2018-12-19T04:20:20.686Z,75.84
2018-12-19T04:22:48.631Z,75.80
2018-12-19T04:25:16.213Z,75.70
2018-12-19T04:27:43.748Z,75.35
2018-12-19T04:30:11.310Z,74.72
2018-12-19T04:32:39.073Z,74.97
2018-12-19T04:35:06.693Z,73.64
2018-12-19T04:37:34.238Z,73.82
2018-12-19T04:40:05.668Z,74.14
2018-12-19T04:42:31.547Z,73.08
2018-12-19T04:44:59.137Z,73.14
2018-12-19T04:47:26.707Z,74.57
2018-12-19T04:49:54.228Z,74.71
2018-12-19T04:52:21.780Z,74.88
2018-12-19T04:54:49.333Z,74.30
2018-12-19T04:57:16.919Z,74.42
2018-12-19T04:59:44.481Z,74.78
2018-12-19T05:02:12.021Z,75.11
2018-12-19T05:04:39.881Z,74.29
2018-12-19T05:07:07.459Z,74.29
2018-12-19T05:09:35.016Z,74.05
2018-12-19T05:12:02.861Z,73.12
2018-12-19T05:14:30.407Z,73.53
2018-12-19T05:16:57.938Z,72.98
2018-12-19T05:19:25.577Z,73.22
2018-12-19T05:21:53.208Z,73.19
2018-12-19T05:24:20.793Z,73.33
2018-12-19T05:26:48.405Z,73.59
2018-12-19T05:29:15.993Z,73.56
2018-12-19T05:31:44.233Z,73.78
2018-12-19T05:34:12.106Z,73.62
2018-12-19T05:36:39.653Z,74.28
2018-12-19T05:39:07.186Z,74.38
2018-12-19T05:41:34.754Z,74.32
2018-12-19T05:44:02.266Z,74.07
2018-12-19T05:46:29.801Z,73.68
2018-12-19T05:48:57.408Z,73.80
2018-12-19T05:51:25.012Z,73.77
2018-12-19T05:53:52.567Z,73.97
2018-12-19T05:56:20.105Z,73.75
2018-12-19T05:58:47.674Z,73.77
2018-12-19T06:01:16.064Z,73.92
2018-12-19T06:03:43.688Z,73.88
2018-12-19T06:06:11.253Z,74.51
2018-12-19T06:08:38.789Z,75.20
2018-12-19T06:11:06.368Z,75.78
2018-12-19T06:13:33.897Z,76.53
2018-12-19T06:16:01.539Z,77.55
2018-12-19T06:18:29.095Z,77.98
2018-12-19T06:20:56.755Z,78.39
2018-12-19T06:23:24.269Z,78.51
2018-12-19T06:25:51.859Z,78.64
2018-12-19T06:28:19.397Z,78.65
2018-12-19T06:30:47.052Z,78.94
2018-12-19T06:33:14.602Z,79.25
2018-12-19T06:35:42.129Z,79.41
2018-12-19T06:38:10.003Z,79.11
2018-12-19T06:40:37.537Z,79.06
2018-12-19T06:43:05.070Z,79.42
2018-12-19T06:45:32.618Z,79.48
2018-12-19T06:48:00.186Z,79.35
2018-12-19T06:50:27.736Z,79.69
2018-12-19T06:52:55.324Z,79.51
2018-12-19T06:55:22.961Z,79.74
2018-12-19T06:57:50.529Z,79.35
2018-12-19T07:00:18.020Z,79.18
2018-12-19T07:02:45.633Z,79.28
2018-12-19T07:05:13.326Z,78.72
2018-12-19T07:07:40.976Z,78.97
2018-12-19T07:10:08.577Z,78.81
2018-12-19T07:12:36.241Z,79.13
2018-12-19T07:15:03.992Z,78.98
2018-12-19T07:17:31.549Z,78.50
2018-12-19T07:19:59.081Z,78.77
2018-12-19T07:22:26.618Z,78.89
2018-12-19T07:24:54.165Z,78.93
2018-12-19T07:27:21.725Z,78.71
2018-12-19T07:29:49.510Z,78.67
2018-12-19T07:32:17.192Z,78.87
2018-12-19T07:34:44.768Z,78.82
2018-12-19T07:37:12.327Z,79.15
2018-12-19T07:39:39.863Z,79.29
2018-12-19T07:42:07.418Z,79.78
2018-12-19T07:44:34.957Z,79.90
2018-12-19T07:47:02.642Z,79.92
2018-12-19T07:49:30.209Z,80.48
2018-12-19T07:51:57.873Z,81.21
2018-12-19T07:54:25.410Z,81.54
2018-12-19T07:56:53.018Z,82.17
2018-12-19T07:59:20.542Z,82.73
2018-12-19T08:01:48.133Z,82.78
2018-12-19T08:04:16.128Z,83.32
2018-12-19T08:06:44.708Z,83.49
2018-12-19T08:09:12.298Z,83.49
2018-12-19T08:11:39.901Z,83.92
2018-12-19T08:14:07.474Z,83.80
2018-12-19T08:16:35.008Z,84.19
2018-12-19T08:19:02.828Z,83.92
2018-12-19T08:21:30.385Z,84.04
2018-12-19T08:23:57.910Z,84.54
2018-12-19T08:26:25.466Z,84.43
2018-12-19T08:28:53.070Z,84.83
2018-12-19T08:31:20.753Z,85.14
2018-12-19T08:33:48.270Z,85.53
2018-12-19T08:36:16.114Z,85.06
2018-12-19T08:38:43.797Z,83.80
2018-12-19T08:41:11.310Z,83.37
2018-12-19T08:43:38.888Z,82.94
2018-12-19T08:46:06.406Z,83.05
2018-12-19T08:48:33.925Z,83.88
2018-12-19T08:51:02.140Z,83.92
2018-12-19T08:53:29.663Z,84.70
2018-12-19T08:55:57.196Z,84.40
2018-12-19T08:58:24.784Z,84.59
2018-12-19T09:00:52.337Z,84.48
2018-12-19T09:03:19.869Z,84.15
2018-12-19T09:05:47.454Z,84.20
2018-12-19T09:08:15.410Z,84.45
2018-12-19T09:10:43.241Z,84.52
2018-12-19T09:13:10.757Z,84.44
2018-12-19T09:15:43.872Z,84.53
2018-12-19T09:18:11.412Z,84.42
2018-12-19T09:20:39.333Z,84.21
2018-12-19T09:23:06.940Z,84.26
2018-12-19T09:25:34.457Z,83.68
2018-12-19T09:28:02.342Z,83.71
2018-12-19T09:30:29.920Z,83.07
2018-12-19T09:32:57.628Z,82.91
2018-12-19T09:35:25.618Z,83.07
2018-12-19T09:37:53.166Z,83.40
2018-12-19T09:40:20.755Z,83.03
2018-12-19T09:42:48.377Z,83.32
2018-12-19T09:45:15.905Z,83.12
2018-12-19T09:47:43.505Z,82.70
2018-12-19T09:50:11.125Z,83.02
2018-12-19T09:52:38.658Z,82.87
2018-12-19T09:55:06.706Z,82.91
2018-12-19T09:57:34.255Z,82.46
2018-12-19T10:00:03.234Z,82.31
2018-12-19T10:02:31.116Z,82.31
2018-12-19T10:04:58.641Z,81.88
2018-12-19T10:07:26.153Z,81.63
2018-12-19T10:09:53.726Z,81.18
2018-12-19T10:12:21.288Z,81.18
2018-12-19T10:14:48.909Z,81.29
2018-12-19T10:17:16.423Z,81.20
2018-12-19T10:19:43.982Z,81.37
2018-12-19T10:22:13.570Z,82.01
2018-12-19T10:24:46.637Z,81.34
2018-12-19T10:27:18.737Z,81.17
2018-12-19T10:29:46.263Z,81.17
2018-12-19T10:32:13.816Z,81.09
2018-12-19T10:34:43.021Z,80.78
2018-12-19T10:37:10.833Z,80.98
2018-12-19T10:39:38.366Z,80.79
2018-12-19T10:42:05.904Z,80.99
2018-12-19T10:44:33.430Z,80.78
2018-12-19T10:47:01.033Z,80.90
2018-12-19T10:49:28.573Z,80.74
2018-12-19T10:51:56.105Z,80.30
2018-12-19T10:54:23.644Z,80.03
2018-12-19T10:56:51.283Z,80.03
2018-12-19T10:59:19.983Z,79.79
2018-12-19T11:01:47.800Z,79.73
2018-12-19T11:04:15.328Z,79.60
2018-12-19T11:06:42.881Z,79.48
2018-12-19T11:09:10.701Z,79.42
2018-12-19T11:11:38.216Z,79.72
2018-12-19T11:14:05.748Z,79.26
2018-12-19T11:16:33.297Z,79.49
2018-12-19T11:19:00.834Z,79.51
2018-12-19T11:21:28.465Z,79.28
2018-12-19T11:23:56.073Z,79.14
2018-12-19T11:26:23.776Z,78.90
2018-12-19T11:28:51.392Z,79.14
2018-12-19T11:31:19.010Z,78.93
2018-12-19T11:33:46.703Z,79.12
2018-12-19T11:36:14.264Z,78.76
2018-12-19T11:38:41.795Z,79.07
2018-12-19T11:41:09.374Z,78.92
2018-12-19T11:43:36.960Z,78.57
2018-12-19T11:46:04.529Z,78.50
2018-12-19T11:48:32.080Z,78.47
2018-12-19T11:50:59.659Z,78.30
2018-12-19T11:53:27.661Z,78.24
2018-12-19T11:55:55.333Z,78.18
2018-12-19T11:58:22.848Z,77.73
2018-12-19T12:00:50.555Z,77.23
2018-12-19T12:03:18.901Z,77.49
2018-12-19T12:05:46.549Z,77.01
2018-12-19T12:08:14.146Z,77.52
2018-12-19T12:10:41.739Z,77.19
2018-12-19T12:13:09.698Z,77.31
2018-12-19T12:15:37.248Z,77.52
2018-12-19T12:18:04.784Z,77.55
2018-12-19T12:20:32.429Z,77.14
2018-12-19T12:23:00.084Z,77.78
2018-12-19T12:25:28.097Z,77.75
2018-12-19T12:27:55.710Z,78.04
2018-12-19T12:30:23.258Z,78.03
2018-12-19T12:32:50.840Z,78.06
2018-12-19T12:35:18.518Z,77.58
2018-12-19T12:37:46.040Z,77.31
2018-12-19T12:40:13.585Z,77.30
2018-12-19T12:42:41.142Z,77.68
2018-12-19T12:45:08.690Z,77.61
2018-12-19T12:47:36.410Z,77.67
2018-12-19T12:50:04.709Z,77.95
2018-12-19T12:52:32.287Z,78.31
2018-12-19T12:54:59.833Z,78.16
2018-12-19T12:57:27.416Z,78.24
2018-12-19T12:59:54.967Z,78.36
2018-12-19T13:02:22.986Z,78.42
2018-12-19T13:04:50.621Z,78.18
2018-12-19T13:07:18.134Z,77.79
2018-12-19T13:09:45.685Z,76.97
2018-12-19T13:12:13.232Z,77.33
2018-12-19T13:14:40.784Z,77.48
2018-12-19T13:17:08.352Z,77.66
2018-12-19T13:19:35.868Z,76.84
2018-12-19T13:22:03.526Z,76.94
2018-12-19T13:24:31.100Z,76.56
2018-12-19T13:26:59.009Z,76.66
2018-12-19T13:29:26.646Z,76.41
2018-12-19T13:31:54.321Z,76.41
2018-12-19T13:34:21.871Z,76.29
2018-12-19T13:36:50.133Z,75.98
2018-12-19T13:39:17.749Z,76.14
2018-12-19T13:41:45.332Z,75.92
2018-12-19T13:44:12.961Z,75.98
2018-12-19T13:46:40.527Z,75.41
2018-12-19T13:49:08.089Z,74.89
2018-12-19T13:51:35.667Z,74.76
2018-12-19T13:54:03.252Z,74.75
2018-12-19T13:56:30.889Z,74.98
2018-12-19T13:58:58.595Z,74.97
2018-12-19T14:01:26.150Z,74.66
2018-12-19T14:03:53.733Z,74.69
2018-12-19T14:06:21.444Z,75.15
2018-12-19T14:08:49.059Z,75.01
2018-12-19T14:11:16.601Z,75.45
2018-12-19T14:13:44.149Z,75.83
2018-12-19T14:16:11.748Z,76.01
2018-12-19T14:18:39.381Z,75.98
2018-12-19T14:21:07.092Z,76.07
2018-12-19T14:23:34.641Z,76.25
2018-12-19T14:26:02.276Z,76.43
2018-12-19T14:28:29.849Z,76.98
2018-12-19T14:30:57.462Z,76.69
2018-12-19T14:33:25.011Z,76.26
2018-12-19T14:35:52.592Z,76.17
2018-12-19T14:38:20.234Z,76.41
2018-12-19T14:40:48.145Z,76.81
2018-12-19T14:43:15.714Z,77.13
2018-12-19T14:45:43.392Z,77.10
2018-12-19T14:48:10.952Z,77.40
2018-12-19T14:50:38.508Z,77.74
2018-12-19T14:53:06.072Z,77.39
2018-12-19T14:55:33.805Z,77.18
2018-12-19T14:58:01.357Z,77.34
2018-12-19T15:00:28.955Z,77.79
2018-12-19T15:02:56.548Z,78.12
2018-12-19T15:05:24.149Z,78.49
2018-12-19T15:07:51.753Z,78.32
2018-12-19T15:10:19.473Z,78.36
2018-12-19T15:12:47.016Z,78.41
2018-12-19T15:15:14.576Z,78.45
2018-12-19T15:17:42.262Z,78.20
2018-12-19T15:20:09.851Z,78.60
2018-12-19T15:22:37.402Z,79.22
2018-12-19T15:25:05.226Z,79.18
2018-12-19T15:27:33.014Z,79.18
2018-12-19T15:30:00.780Z,79.45
2018-12-19T15:32:28.326Z,79.35
2018-12-19T15:34:55.961Z,79.67
2018-12-19T15:37:23.506Z,79.72
2018-12-19T15:39:51.065Z,79.76
2018-12-19T15:42:18.618Z,80.00
2018-12-19T15:44:46.180Z,79.91
2018-12-19T15:47:13.753Z,80.09
2018-12-19T15:49:41.279Z,79.96
2018-12-19T15:52:08.859Z,80.13
2018-12-19T15:54:36.492Z,80.64
2018-12-19T15:57:04.035Z,81.28
2018-12-19T15:59:31.636Z,81.33
2018-12-19T16:01:59.215Z,81.85
2018-12-19T16:04:27.337Z,81.98
2018-12-19T16:06:54.930Z,82.22
2018-12-19T16:09:22.531Z,82.32
2018-12-19T16:11:50.125Z,82.67
2018-12-19T16:14:17.801Z,82.37
2018-12-19T16:16:45.362Z,82.24
2018-12-19T16:19:12.966Z,82.70
2018-12-19T16:21:40.531Z,82.76
2018-12-19T16:24:08.095Z,82.77
2018-12-19T16:26:35.694Z,83.15
2018-12-19T16:29:03.259Z,84.13
2018-12-19T16:31:30.887Z,84.50
2018-12-19T16:33:58.565Z,85.05
2018-12-19T16:36:26.169Z,85.16
2018-12-19T16:38:53.745Z,85.27
2018-12-19T16:41:21.393Z,85.71
2018-12-19T16:43:48.981Z,86.39
2018-12-19T16:46:16.549Z,86.89
2018-12-19T16:48:44.801Z,87.04
2018-12-19T16:51:12.394Z,87.04
2018-12-19T16:53:39.951Z,87.28
2018-12-19T16:56:08.028Z,87.57
2018-12-19T16:58:35.599Z,87.41
2018-12-19T17:01:03.282Z,87.79
2018-12-19T17:03:30.854Z,88.07
2018-12-19T17:05:58.414Z,88.26
2018-12-19T17:08:26.188Z,88.60
2018-12-19T17:10:53.741Z,88.71
2018-12-19T17:13:21.288Z,88.61
2018-12-19T17:15:49.218Z,88.63
2018-12-19T17:18:16.842Z,88.33
2018-12-19T17:20:44.363Z,88.36
2018-12-19T17:23:11.921Z,88.48
2018-12-19T17:25:39.451Z,88.24
2018-12-19T17:28:07.029Z,88.58
2018-12-19T17:30:34.562Z,88.57
2018-12-19T17:33:02.236Z,88.55
2018-12-19T17:35:29.763Z,88.74
2018-12-19T17:37:57.382Z,88.71
2018-12-19T17:40:25.223Z,88.87
2018-12-19T17:42:59.246Z,89.05
2018-12-19T17:45:22.282Z,88.49
2018-12-19T17:47:50.066Z,88.70
2018-12-19T17:50:17.610Z,88.74
2018-12-19T17:52:45.161Z,88.71
2018-12-19T17:55:12.713Z,89.00
2018-12-19T17:57:40.256Z,88.81
2018-12-19T18:00:10.165Z,88.84
2018-12-19T18:02:37.811Z,89.01
2018-12-19T18:05:05.473Z,88.86
2018-12-19T18:07:33.134Z,89.25
2018-12-19T18:10:01.542Z,89.06
2018-12-19T18:12:29.224Z,88.76
2018-12-19T18:14:56.805Z,88.73
2018-12-19T18:17:24.348Z,88.86
2018-12-19T18:19:51.876Z,88.72
2018-12-19T18:22:19.458Z,88.89
2018-12-19T18:24:47.031Z,88.51
2018-12-19T18:27:14.585Z,88.71
2018-12-19T18:29:42.118Z,88.71
2018-12-19T18:32:09.674Z,88.63
2018-12-19T18:34:37.542Z,88.53
2018-12-19T18:37:05.077Z,88.29
2018-12-19T18:39:32.662Z,88.59
2018-12-19T18:42:00.214Z,88.60
2018-12-19T18:44:27.709Z,88.45
2018-12-19T18:46:55.339Z,88.25
2018-12-19T18:49:22.893Z,88.50
2018-12-19T18:51:50.457Z,88.27
2018-12-19T18:54:17.993Z,88.22
2018-12-19T18:56:45.554Z,88.54
2018-12-19T18:59:13.200Z,88.54
2018-12-19T19:01:40.805Z,88.58
2018-12-19T19:04:08.357Z,88.25
2018-12-19T19:06:36.158Z,88.24
2018-12-19T19:09:04.446Z,88.02
2018-12-19T19:11:32.002Z,88.35
2018-12-19T19:13:59.589Z,88.23
2018-12-19T19:16:27.147Z,88.38
2018-12-19T19:18:54.653Z,88.22
2018-12-19T19:21:22.261Z,88.38
2018-12-19T19:23:49.848Z,88.16
2018-12-19T19:26:17.438Z,88.01
2018-12-19T19:28:44.955Z,87.98
2018-12-19T19:31:12.620Z,88.11
2018-12-19T19:33:40.277Z,88.54
2018-12-19T19:36:07.808Z,88.36
2018-12-19T19:38:35.384Z,88.65
2018-12-19T19:41:02.998Z,88.64
2018-12-19T19:43:30.543Z,88.54
2018-12-19T19:45:58.126Z,88.38
2018-12-19T19:48:25.740Z,88.40
2018-12-19T19:50:53.299Z,87.86
2018-12-19T19:53:20.868Z,87.98
2018-12-19T19:55:48.385Z,88.23
2018-12-19T19:58:15.923Z,88.41
2018-12-19T20:00:43.453Z,88.19
2018-12-19T20:03:11.247Z,88.28
2018-12-19T20:05:38.992Z,88.42
2018-12-19T20:08:06.610Z,88.59
2018-12-19T20:10:35.018Z,88.41
2018-12-19T20:13:02.743Z,88.28
2018-12-19T20:15:30.425Z,88.37
2018-12-19T20:17:58.008Z,88.42
2018-12-19T20:20:25.627Z,88.72
2018-12-19T20:22:53.178Z,88.58
2018-12-19T20:25:21.022Z,88.13
2018-12-19T20:27:48.787Z,88.60
2018-12-19T20:30:16.362Z,88.37
2018-12-19T20:32:43.911Z,88.47
2018-12-19T20:35:11.496Z,88.43
2018-12-19T20:37:39.056Z,88.30
2018-12-19T20:40:06.599Z,88.86
2018-12-19T20:42:34.218Z,88.63
2018-12-19T20:45:02.076Z,88.83
2018-12-19T20:47:29.652Z,89.03
2018-12-19T20:49:57.176Z,89.22
2018-12-19T20:52:24.733Z,89.13
2018-12-19T20:54:52.255Z,88.97
2018-12-19T20:57:19.801Z,89.36
2018-12-19T20:59:47.372Z,89.24
2018-12-19T21:02:15.290Z,89.38
2018-12-19T21:04:42.847Z,89.46
2018-12-19T21:07:10.410Z,89.67
2018-12-19T21:09:37.960Z,89.32
2018-12-19T21:12:05.539Z,89.25
2018-12-19T21:14:33.340Z,89.02
2018-12-19T21:17:06.643Z,89.33
2018-12-19T21:19:34.181Z,89.50
2018-12-19T21:22:01.925Z,89.24
2018-12-19T21:24:29.501Z,89.28
2018-12-19T21:26:57.015Z,89.19
2018-12-19T21:29:24.534Z,89.27
2018-12-19T21:31:52.079Z,89.95
2018-12-19T21:34:19.611Z,90.01
2018-12-19T21:36:47.277Z,89.99
2018-12-19T21:39:14.898Z,90.10
2018-12-19T21:41:42.546Z,89.85
2018-12-19T21:44:10.093Z,89.86
2018-12-19T21:46:37.723Z,89.85
2018-12-19T21:49:05.388Z,89.83
2018-12-19T21:51:33.076Z,89.79
2018-12-19T21:54:00.939Z,89.77
2018-12-19T21:56:28.619Z,89.55
2018-12-19T21:58:56.276Z,89.67
2018-12-19T22:01:23.958Z,89.97
2018-12-19T22:03:51.595Z,89.54
2018-12-19T22:06:19.330Z,89.47
2018-12-19T22:08:46.897Z,89.24
2018-12-19T22:11:14.549Z,89.52
2018-12-19T22:13:42.278Z,89.36
2018-12-19T22:16:14.433Z,89.57
2018-12-19T22:18:46.314Z,89.66
2018-12-19T22:21:14.235Z,89.83
2018-12-19T22:23:42.140Z,89.93
2018-12-19T22:26:11.380Z,90.03
2018-12-19T22:28:39.162Z,89.77
2018-12-19T22:31:06.823Z,90.01
2018-12-19T22:33:34.497Z,90.27
2018-12-19T22:36:02.124Z,89.82
2018-12-19T22:38:29.645Z,90.18
2018-12-19T22:40:57.261Z,90.23
2018-12-19T22:43:24.830Z,90.44
2018-12-19T22:45:52.377Z,90.10
2018-12-19T22:48:19.955Z,89.97
2018-12-19T22:50:47.602Z,90.03
2018-12-19T22:53:15.226Z,89.83
2018-12-19T22:55:42.786Z,89.87
2018-12-19T22:58:10.439Z,89.65
2018-12-19T23:00:43.938Z,89.53
2018-12-19T23:03:11.570Z,89.73
2018-12-19T23:05:44.684Z,89.85
2018-12-19T23:08:12.896Z,89.71
2018-12-19T23:10:40.969Z,89.33
2018-12-19T23:13:08.536Z,89.64
2018-12-19T23:15:36.275Z,89.50
2018-12-19T23:18:09.897Z,89.10
2018-12-19T23:20:37.582Z,89.09
2018-12-19T23:23:05.199Z,89.22
2018-12-19T23:25:32.798Z,88.86
2018-12-19T23:28:00.392Z,89.01
2018-12-19T23:30:28.008Z,88.96
2018-12-19T23:32:56.861Z,89.36
2018-12-19T23:35:24.475Z,89.40
2018-12-19T23:37:52.173Z,89.53
2018-12-19T23:40:19.835Z,89.06
2018-12-19T23:42:47.464Z,89.19
2018-12-19T23:45:15.092Z,89.48
2018-12-19T23:47:42.716Z,89.16
2018-12-19T23:50:10.601Z,89.01
2018-12-19T23:52:38.281Z,89.58
2018-12-19T23:55:06.101Z,89.50
2018-12-19T23:57:33.693Z,89.79
